﻿<?xml version="1.0" encoding="UTF-8" standalone="no" ?>
<gpx xmlns="http://www.topografix.com/GPX/1/1" creator="CompeGPS" version="1.1" xmlns:xsi="http://www.w3.org/2001/XMLSchema-instance" xsi:schemaLocation="http://www.topografix.com/GPX/1/1 http://www.topografix.com/GPX/1/1/gpx.xsd http://www.garmin.com/xmlschemas/GpxExtensions/v3 http://www.garmin.com/xmlschemas/GpxExtensionsv3.xsd http://www.garmin.com/xmlschemas/TrackPointExtension/v1 http://www.garmin.com/xmlschemas/TrackPointExtensionv1.xsd" xmlns:gpxtpx="http://www.garmin.com/xmlschemas/TrackPointExtension/v1">
  <metadata>
    <link href="http://www.compegps.com">
      <text>CompeGPS TEAM, SL</text>
    </link>
    <time>2013-03-29T18:06:20Z</time>
    <bounds maxlat="43.520848" maxlon="1.458411" minlat="43.507852" minlon="1.425128"/>
  </metadata>
<wpt lat="43.507854" lon="1.457833">
  <ele>245</ele>
  <name>Vigoulet-Auzil</name>
</wpt>
<wpt lat="43.514454" lon="1.439989">
  <ele>200</ele>
  <name>Pont d_Auzil</name>
</wpt>
<wpt lat="43.520166" lon="1.437768">
  <ele>240</ele>
  <name>Pastel</name>
</wpt>
<wpt lat="43.519767" lon="1.432648">
  <ele>240</ele>
  <name>Roche Fleurie</name>
</wpt>
<wpt lat="43.520691" lon="1.428655">
  <ele>240</ele>
  <name>Tectosages</name>
</wpt>
<wpt lat="43.517772" lon="1.425128">
  <ele>150</ele>
  <name>Confluent</name>
</wpt>
<wpt lat="43.512556" lon="1.433885">
  <ele>240</ele>
  <name>Auzil</name>
</wpt>
  <trk>
    <name>Vigoulet-Auzil</name>
    <trkseg>
      <trkpt lat="43.507854" lon="1.457833">
        <ele>320.7</ele>
        <time>2013-03-24T11:34:35Z</time>
        <name>Vigoulet-Auzil</name>
      </trkpt>
      <trkpt lat="43.507852" lon="1.457854">
        <ele>323.6</ele>
        <time>2013-03-24T11:34:40Z</time>
      </trkpt>
      <trkpt lat="43.507906" lon="1.458054">
        <ele>266.4</ele>
        <time>2013-03-24T11:41:17Z</time>
      </trkpt>
      <trkpt lat="43.507987" lon="1.458136">
        <ele>266.9</ele>
        <time>2013-03-24T11:41:28Z</time>
      </trkpt>
      <trkpt lat="43.508071" lon="1.458184">
        <ele>266.4</ele>
        <time>2013-03-24T11:41:38Z</time>
      </trkpt>
      <trkpt lat="43.508152" lon="1.458258">
        <ele>265.9</ele>
        <time>2013-03-24T11:41:48Z</time>
      </trkpt>
      <trkpt lat="43.508234" lon="1.458333">
        <ele>265.0</ele>
        <time>2013-03-24T11:41:58Z</time>
      </trkpt>
      <trkpt lat="43.508321" lon="1.458411">
        <ele>263.1</ele>
        <time>2013-03-24T11:42:09Z</time>
      </trkpt>
      <trkpt lat="43.508432" lon="1.458353">
        <ele>263.1</ele>
        <time>2013-03-24T11:42:23Z</time>
      </trkpt>
      <trkpt lat="43.508501" lon="1.458234">
        <ele>262.6</ele>
        <time>2013-03-24T11:42:34Z</time>
      </trkpt>
      <trkpt lat="43.508576" lon="1.458147">
        <ele>263.1</ele>
        <time>2013-03-24T11:42:44Z</time>
      </trkpt>
      <trkpt lat="43.508598" lon="1.458026">
        <ele>263.1</ele>
        <time>2013-03-24T11:42:55Z</time>
      </trkpt>
      <trkpt lat="43.508639" lon="1.457907">
        <ele>262.6</ele>
        <time>2013-03-24T11:43:04Z</time>
      </trkpt>
      <trkpt lat="43.508688" lon="1.457783">
        <ele>261.1</ele>
        <time>2013-03-24T11:43:13Z</time>
      </trkpt>
      <trkpt lat="43.508735" lon="1.457671">
        <ele>261.1</ele>
        <time>2013-03-24T11:43:23Z</time>
      </trkpt>
      <trkpt lat="43.508778" lon="1.457523">
        <ele>260.6</ele>
        <time>2013-03-24T11:43:34Z</time>
      </trkpt>
      <trkpt lat="43.508823" lon="1.457398">
        <ele>260.2</ele>
        <time>2013-03-24T11:43:43Z</time>
      </trkpt>
      <trkpt lat="43.508877" lon="1.457262">
        <ele>259.7</ele>
        <time>2013-03-24T11:43:52Z</time>
      </trkpt>
      <trkpt lat="43.508925" lon="1.457135">
        <ele>259.2</ele>
        <time>2013-03-24T11:44:01Z</time>
      </trkpt>
      <trkpt lat="43.508983" lon="1.456972">
        <ele>258.7</ele>
        <time>2013-03-24T11:44:11Z</time>
      </trkpt>
      <trkpt lat="43.509037" lon="1.456834">
        <ele>258.2</ele>
        <time>2013-03-24T11:44:20Z</time>
      </trkpt>
      <trkpt lat="43.509078" lon="1.456700">
        <ele>257.8</ele>
        <time>2013-03-24T11:44:29Z</time>
      </trkpt>
      <trkpt lat="43.509138" lon="1.456583">
        <ele>257.8</ele>
        <time>2013-03-24T11:44:39Z</time>
      </trkpt>
      <trkpt lat="43.509198" lon="1.456468">
        <ele>256.8</ele>
        <time>2013-03-24T11:44:51Z</time>
      </trkpt>
      <trkpt lat="43.509139" lon="1.456232">
        <ele>256.8</ele>
        <time>2013-03-24T11:45:40Z</time>
      </trkpt>
      <trkpt lat="43.509145" lon="1.456058">
        <ele>256.8</ele>
        <time>2013-03-24T11:45:54Z</time>
      </trkpt>
      <trkpt lat="43.509141" lon="1.455856">
        <ele>257.3</ele>
        <time>2013-03-24T11:46:10Z</time>
      </trkpt>
      <trkpt lat="43.509098" lon="1.455702">
        <ele>258.2</ele>
        <time>2013-03-24T11:46:22Z</time>
      </trkpt>
      <trkpt lat="43.509105" lon="1.455580">
        <ele>259.2</ele>
        <time>2013-03-24T11:46:32Z</time>
      </trkpt>
      <trkpt lat="43.509117" lon="1.455446">
        <ele>259.7</ele>
        <time>2013-03-24T11:46:44Z</time>
      </trkpt>
      <trkpt lat="43.509166" lon="1.455341">
        <ele>258.2</ele>
        <time>2013-03-24T11:46:59Z</time>
      </trkpt>
      <trkpt lat="43.509282" lon="1.455212">
        <ele>258.7</ele>
        <time>2013-03-24T11:47:11Z</time>
      </trkpt>
      <trkpt lat="43.509366" lon="1.455113">
        <ele>258.2</ele>
        <time>2013-03-24T11:47:23Z</time>
      </trkpt>
      <trkpt lat="43.509474" lon="1.455044">
        <ele>255.9</ele>
        <time>2013-03-24T11:47:35Z</time>
      </trkpt>
      <trkpt lat="43.509602" lon="1.454958">
        <ele>253.4</ele>
        <time>2013-03-24T11:47:52Z</time>
      </trkpt>
      <trkpt lat="43.509723" lon="1.454856">
        <ele>251.0</ele>
        <time>2013-03-24T11:48:07Z</time>
      </trkpt>
      <trkpt lat="43.509854" lon="1.454740">
        <ele>249.6</ele>
        <time>2013-03-24T11:48:19Z</time>
      </trkpt>
      <trkpt lat="43.509968" lon="1.454613">
        <ele>247.7</ele>
        <time>2013-03-24T11:48:32Z</time>
      </trkpt>
      <trkpt lat="43.510060" lon="1.454477">
        <ele>246.7</ele>
        <time>2013-03-24T11:48:44Z</time>
      </trkpt>
      <trkpt lat="43.510160" lon="1.454341">
        <ele>246.2</ele>
        <time>2013-03-24T11:48:55Z</time>
      </trkpt>
      <trkpt lat="43.510217" lon="1.454199">
        <ele>245.8</ele>
        <time>2013-03-24T11:49:06Z</time>
      </trkpt>
      <trkpt lat="43.510291" lon="1.454037">
        <ele>245.3</ele>
        <time>2013-03-24T11:49:17Z</time>
      </trkpt>
      <trkpt lat="43.510356" lon="1.453906">
        <ele>244.3</ele>
        <time>2013-03-24T11:49:26Z</time>
      </trkpt>
      <trkpt lat="43.510401" lon="1.453778">
        <ele>244.8</ele>
        <time>2013-03-24T11:49:35Z</time>
      </trkpt>
      <trkpt lat="43.510469" lon="1.453661">
        <ele>244.3</ele>
        <time>2013-03-24T11:49:44Z</time>
      </trkpt>
      <trkpt lat="43.510542" lon="1.453531">
        <ele>243.4</ele>
        <time>2013-03-24T11:49:55Z</time>
      </trkpt>
      <trkpt lat="43.510621" lon="1.453444">
        <ele>242.4</ele>
        <time>2013-03-24T11:50:04Z</time>
      </trkpt>
      <trkpt lat="43.510704" lon="1.453342">
        <ele>241.4</ele>
        <time>2013-03-24T11:50:14Z</time>
      </trkpt>
      <trkpt lat="43.510796" lon="1.453233">
        <ele>240.5</ele>
        <time>2013-03-24T11:50:23Z</time>
      </trkpt>
      <trkpt lat="43.510885" lon="1.453129">
        <ele>240.0</ele>
        <time>2013-03-24T11:50:31Z</time>
      </trkpt>
      <trkpt lat="43.510950" lon="1.453016">
        <ele>239.5</ele>
        <time>2013-03-24T11:50:39Z</time>
      </trkpt>
      <trkpt lat="43.511017" lon="1.452912">
        <ele>239.0</ele>
        <time>2013-03-24T11:50:47Z</time>
      </trkpt>
      <trkpt lat="43.511100" lon="1.452825">
        <ele>238.5</ele>
        <time>2013-03-24T11:50:56Z</time>
      </trkpt>
      <trkpt lat="43.511189" lon="1.452731">
        <ele>238.1</ele>
        <time>2013-03-24T11:51:06Z</time>
      </trkpt>
      <trkpt lat="43.511273" lon="1.452672">
        <ele>238.1</ele>
        <time>2013-03-24T11:51:15Z</time>
      </trkpt>
      <trkpt lat="43.511362" lon="1.452596">
        <ele>235.7</ele>
        <time>2013-03-24T11:51:25Z</time>
      </trkpt>
      <trkpt lat="43.511443" lon="1.452516">
        <ele>234.7</ele>
        <time>2013-03-24T11:51:42Z</time>
      </trkpt>
      <trkpt lat="43.511528" lon="1.452391">
        <ele>231.8</ele>
        <time>2013-03-24T11:53:26Z</time>
      </trkpt>
      <trkpt lat="43.511644" lon="1.452443">
        <ele>230.4</ele>
        <time>2013-03-24T11:53:42Z</time>
      </trkpt>
      <trkpt lat="43.511750" lon="1.452440">
        <ele>229.4</ele>
        <time>2013-03-24T11:54:00Z</time>
      </trkpt>
      <trkpt lat="43.511841" lon="1.452472">
        <ele>227.0</ele>
        <time>2013-03-24T11:54:24Z</time>
      </trkpt>
      <trkpt lat="43.511897" lon="1.452381">
        <ele>226.1</ele>
        <time>2013-03-24T11:54:39Z</time>
      </trkpt>
      <trkpt lat="43.511963" lon="1.452267">
        <ele>225.6</ele>
        <time>2013-03-24T11:54:50Z</time>
      </trkpt>
      <trkpt lat="43.512055" lon="1.452184">
        <ele>224.6</ele>
        <time>2013-03-24T11:55:03Z</time>
      </trkpt>
      <trkpt lat="43.512140" lon="1.452092">
        <ele>222.7</ele>
        <time>2013-03-24T11:55:15Z</time>
      </trkpt>
      <trkpt lat="43.512214" lon="1.452002">
        <ele>221.7</ele>
        <time>2013-03-24T11:55:28Z</time>
      </trkpt>
      <trkpt lat="43.512258" lon="1.451885">
        <ele>221.2</ele>
        <time>2013-03-24T11:55:50Z</time>
      </trkpt>
      <trkpt lat="43.512245" lon="1.451647">
        <ele>221.2</ele>
        <time>2013-03-24T11:56:08Z</time>
      </trkpt>
      <trkpt lat="43.512236" lon="1.451489">
        <ele>222.7</ele>
        <time>2013-03-24T11:56:21Z</time>
      </trkpt>
      <trkpt lat="43.512230" lon="1.451311">
        <ele>222.7</ele>
        <time>2013-03-24T11:56:32Z</time>
      </trkpt>
      <trkpt lat="43.512253" lon="1.451128">
        <ele>222.2</ele>
        <time>2013-03-24T11:56:44Z</time>
      </trkpt>
      <trkpt lat="43.512253" lon="1.450958">
        <ele>221.7</ele>
        <time>2013-03-24T11:56:55Z</time>
      </trkpt>
      <trkpt lat="43.512275" lon="1.450774">
        <ele>220.3</ele>
        <time>2013-03-24T11:57:09Z</time>
      </trkpt>
      <trkpt lat="43.512279" lon="1.450605">
        <ele>217.4</ele>
        <time>2013-03-24T11:57:24Z</time>
      </trkpt>
      <trkpt lat="43.512088" lon="1.450473">
        <ele>216.9</ele>
        <time>2013-03-24T11:57:49Z</time>
      </trkpt>
      <trkpt lat="43.512104" lon="1.450280">
        <ele>218.4</ele>
        <time>2013-03-24T11:58:04Z</time>
      </trkpt>
      <trkpt lat="43.512221" lon="1.450101">
        <ele>217.9</ele>
        <time>2013-03-24T11:58:17Z</time>
      </trkpt>
      <trkpt lat="43.512288" lon="1.449997">
        <ele>219.3</ele>
        <time>2013-03-24T11:58:33Z</time>
      </trkpt>
      <trkpt lat="43.512333" lon="1.449745">
        <ele>221.7</ele>
        <time>2013-03-24T11:58:52Z</time>
      </trkpt>
      <trkpt lat="43.512387" lon="1.449509">
        <ele>221.2</ele>
        <time>2013-03-24T11:59:12Z</time>
      </trkpt>
      <trkpt lat="43.512430" lon="1.449235">
        <ele>220.3</ele>
        <time>2013-03-24T12:00:19Z</time>
      </trkpt>
      <trkpt lat="43.512502" lon="1.449114">
        <ele>219.3</ele>
        <time>2013-03-24T12:01:13Z</time>
      </trkpt>
      <trkpt lat="43.512551" lon="1.448972">
        <ele>218.4</ele>
        <time>2013-03-24T12:01:26Z</time>
      </trkpt>
      <trkpt lat="43.512582" lon="1.448789">
        <ele>218.8</ele>
        <time>2013-03-24T12:01:38Z</time>
      </trkpt>
      <trkpt lat="43.512546" lon="1.448569">
        <ele>219.8</ele>
        <time>2013-03-24T12:01:54Z</time>
      </trkpt>
      <trkpt lat="43.512509" lon="1.448409">
        <ele>221.7</ele>
        <time>2013-03-24T12:02:09Z</time>
      </trkpt>
      <trkpt lat="43.512516" lon="1.448217">
        <ele>222.2</ele>
        <time>2013-03-24T12:02:21Z</time>
      </trkpt>
      <trkpt lat="43.512556" lon="1.448046">
        <ele>220.3</ele>
        <time>2013-03-24T12:02:34Z</time>
      </trkpt>
      <trkpt lat="43.512594" lon="1.447858">
        <ele>218.4</ele>
        <time>2013-03-24T12:02:53Z</time>
      </trkpt>
      <trkpt lat="43.512653" lon="1.447669">
        <ele>217.4</ele>
        <time>2013-03-24T12:03:11Z</time>
      </trkpt>
      <trkpt lat="43.512730" lon="1.447477">
        <ele>215.0</ele>
        <time>2013-03-24T12:03:27Z</time>
      </trkpt>
      <trkpt lat="43.512826" lon="1.447231">
        <ele>215.5</ele>
        <time>2013-03-24T12:03:44Z</time>
      </trkpt>
      <trkpt lat="43.512889" lon="1.446942">
        <ele>216.9</ele>
        <time>2013-03-24T12:04:21Z</time>
      </trkpt>
      <trkpt lat="43.512935" lon="1.446780">
        <ele>217.9</ele>
        <time>2013-03-24T12:04:38Z</time>
      </trkpt>
      <trkpt lat="43.512992" lon="1.446532">
        <ele>216.9</ele>
        <time>2013-03-24T12:05:04Z</time>
      </trkpt>
      <trkpt lat="43.513016" lon="1.446360">
        <ele>216.9</ele>
        <time>2013-03-24T12:05:19Z</time>
      </trkpt>
      <trkpt lat="43.513036" lon="1.446158">
        <ele>216.4</ele>
        <time>2013-03-24T12:05:33Z</time>
      </trkpt>
      <trkpt lat="43.513085" lon="1.445945">
        <ele>215.9</ele>
        <time>2013-03-24T12:05:47Z</time>
      </trkpt>
      <trkpt lat="43.513123" lon="1.445752">
        <ele>215.5</ele>
        <time>2013-03-24T12:06:03Z</time>
      </trkpt>
      <trkpt lat="43.513156" lon="1.445581">
        <ele>215.0</ele>
        <time>2013-03-24T12:06:16Z</time>
      </trkpt>
      <trkpt lat="43.513192" lon="1.445368">
        <ele>214.0</ele>
        <time>2013-03-24T12:06:29Z</time>
      </trkpt>
      <trkpt lat="43.513241" lon="1.445170">
        <ele>212.6</ele>
        <time>2013-03-24T12:06:39Z</time>
      </trkpt>
      <trkpt lat="43.513285" lon="1.444964">
        <ele>211.6</ele>
        <time>2013-03-24T12:06:52Z</time>
      </trkpt>
      <trkpt lat="43.513256" lon="1.444801">
        <ele>209.7</ele>
        <time>2013-03-24T12:07:04Z</time>
      </trkpt>
      <trkpt lat="43.513283" lon="1.444631">
        <ele>208.7</ele>
        <time>2013-03-24T12:07:39Z</time>
      </trkpt>
      <trkpt lat="43.513421" lon="1.444615">
        <ele>208.3</ele>
        <time>2013-03-24T12:09:07Z</time>
      </trkpt>
      <trkpt lat="43.513503" lon="1.444522">
        <ele>205.9</ele>
        <time>2013-03-24T12:09:25Z</time>
      </trkpt>
      <trkpt lat="43.513573" lon="1.444347">
        <ele>203.9</ele>
        <time>2013-03-24T12:09:46Z</time>
      </trkpt>
      <trkpt lat="43.513548" lon="1.444139">
        <ele>200.1</ele>
        <time>2013-03-24T12:10:01Z</time>
      </trkpt>
      <trkpt lat="43.513517" lon="1.443983">
        <ele>199.1</ele>
        <time>2013-03-24T12:12:44Z</time>
      </trkpt>
      <trkpt lat="43.513376" lon="1.443872">
        <ele>196.2</ele>
        <time>2013-03-24T12:12:58Z</time>
      </trkpt>
      <trkpt lat="43.513413" lon="1.443708">
        <ele>197.2</ele>
        <time>2013-03-24T12:13:22Z</time>
      </trkpt>
      <trkpt lat="43.513565" lon="1.443579">
        <ele>199.6</ele>
        <time>2013-03-24T12:13:44Z</time>
      </trkpt>
      <trkpt lat="43.513603" lon="1.443450">
        <ele>202.5</ele>
        <time>2013-03-24T12:14:38Z</time>
      </trkpt>
      <trkpt lat="43.513543" lon="1.443364">
        <ele>203.5</ele>
        <time>2013-03-24T12:14:54Z</time>
      </trkpt>
      <trkpt lat="43.513631" lon="1.443233">
        <ele>203.5</ele>
        <time>2013-03-24T12:15:07Z</time>
      </trkpt>
      <trkpt lat="43.513727" lon="1.443122">
        <ele>203.5</ele>
        <time>2013-03-24T12:15:21Z</time>
      </trkpt>
      <trkpt lat="43.513759" lon="1.442999">
        <ele>204.4</ele>
        <time>2013-03-24T12:15:36Z</time>
      </trkpt>
      <trkpt lat="43.513806" lon="1.442812">
        <ele>204.9</ele>
        <time>2013-03-24T12:15:49Z</time>
      </trkpt>
      <trkpt lat="43.513861" lon="1.442670">
        <ele>204.9</ele>
        <time>2013-03-24T12:16:00Z</time>
      </trkpt>
      <trkpt lat="43.513851" lon="1.442503">
        <ele>205.4</ele>
        <time>2013-03-24T12:16:46Z</time>
      </trkpt>
      <trkpt lat="43.513885" lon="1.442352">
        <ele>204.9</ele>
        <time>2013-03-24T12:16:58Z</time>
      </trkpt>
      <trkpt lat="43.513911" lon="1.442215">
        <ele>204.4</ele>
        <time>2013-03-24T12:17:08Z</time>
      </trkpt>
      <trkpt lat="43.513951" lon="1.442077">
        <ele>204.4</ele>
        <time>2013-03-24T12:17:19Z</time>
      </trkpt>
      <trkpt lat="43.513990" lon="1.441950">
        <ele>204.4</ele>
        <time>2013-03-24T12:17:29Z</time>
      </trkpt>
      <trkpt lat="43.514018" lon="1.441805">
        <ele>204.4</ele>
        <time>2013-03-24T12:17:39Z</time>
      </trkpt>
      <trkpt lat="43.514058" lon="1.441660">
        <ele>204.4</ele>
        <time>2013-03-24T12:17:49Z</time>
      </trkpt>
      <trkpt lat="43.514095" lon="1.441514">
        <ele>204.4</ele>
        <time>2013-03-24T12:17:59Z</time>
      </trkpt>
      <trkpt lat="43.514140" lon="1.441373">
        <ele>204.4</ele>
        <time>2013-03-24T12:18:09Z</time>
      </trkpt>
      <trkpt lat="43.514163" lon="1.441225">
        <ele>204.9</ele>
        <time>2013-03-24T12:18:18Z</time>
      </trkpt>
      <trkpt lat="43.514184" lon="1.441068">
        <ele>204.4</ele>
        <time>2013-03-24T12:18:27Z</time>
      </trkpt>
      <trkpt lat="43.514240" lon="1.440931">
        <ele>205.9</ele>
        <time>2013-03-24T12:18:37Z</time>
      </trkpt>
      <trkpt lat="43.514298" lon="1.440804">
        <ele>206.3</ele>
        <time>2013-03-24T12:18:47Z</time>
      </trkpt>
      <trkpt lat="43.514304" lon="1.440658">
        <ele>206.8</ele>
        <time>2013-03-24T12:21:26Z</time>
      </trkpt>
      <trkpt lat="43.514358" lon="1.440540">
        <ele>207.8</ele>
        <time>2013-03-24T12:21:38Z</time>
      </trkpt>
      <trkpt lat="43.514408" lon="1.440414">
        <ele>208.3</ele>
        <time>2013-03-24T12:21:49Z</time>
      </trkpt>
      <trkpt lat="43.514449" lon="1.440289">
        <ele>208.3</ele>
        <time>2013-03-24T12:22:00Z</time>
      </trkpt>
      <trkpt lat="43.514476" lon="1.440136">
        <ele>209.7</ele>
        <time>2013-03-24T12:22:11Z</time>
      </trkpt>
      <trkpt lat="43.514454" lon="1.439989">
        <ele>210.2</ele>
        <time>2013-03-24T12:22:23Z</time>
        <name>Pont d_Auzil</name>
      </trkpt>
      <trkpt lat="43.514516" lon="1.439898">
        <ele>209.7</ele>
        <time>2013-03-24T12:22:36Z</time>
      </trkpt>
      <trkpt lat="43.514601" lon="1.439816">
        <ele>208.7</ele>
        <time>2013-03-24T12:23:47Z</time>
      </trkpt>
      <trkpt lat="43.514674" lon="1.439674">
        <ele>207.3</ele>
        <time>2013-03-24T12:23:59Z</time>
      </trkpt>
      <trkpt lat="43.514713" lon="1.439537">
        <ele>206.8</ele>
        <time>2013-03-24T12:24:12Z</time>
      </trkpt>
      <trkpt lat="43.514784" lon="1.439356">
        <ele>205.4</ele>
        <time>2013-03-24T12:24:26Z</time>
      </trkpt>
      <trkpt lat="43.514842" lon="1.439208">
        <ele>203.5</ele>
        <time>2013-03-24T12:24:38Z</time>
      </trkpt>
      <trkpt lat="43.514898" lon="1.439071">
        <ele>203.0</ele>
        <time>2013-03-24T12:24:48Z</time>
      </trkpt>
      <trkpt lat="43.514992" lon="1.438941">
        <ele>202.0</ele>
        <time>2013-03-24T12:25:00Z</time>
      </trkpt>
      <trkpt lat="43.515101" lon="1.438856">
        <ele>200.6</ele>
        <time>2013-03-24T12:25:11Z</time>
      </trkpt>
      <trkpt lat="43.515221" lon="1.438731">
        <ele>198.6</ele>
        <time>2013-03-24T12:25:23Z</time>
      </trkpt>
      <trkpt lat="43.515349" lon="1.438579">
        <ele>197.7</ele>
        <time>2013-03-24T12:25:37Z</time>
      </trkpt>
      <trkpt lat="43.515440" lon="1.438430">
        <ele>195.8</ele>
        <time>2013-03-24T12:25:51Z</time>
      </trkpt>
      <trkpt lat="43.515500" lon="1.438290">
        <ele>193.8</ele>
        <time>2013-03-24T12:26:05Z</time>
      </trkpt>
      <trkpt lat="43.515577" lon="1.438080">
        <ele>191.4</ele>
        <time>2013-03-24T12:26:20Z</time>
      </trkpt>
      <trkpt lat="43.515657" lon="1.437907">
        <ele>187.6</ele>
        <time>2013-03-24T12:26:35Z</time>
      </trkpt>
      <trkpt lat="43.515747" lon="1.437813">
        <ele>184.7</ele>
        <time>2013-03-24T12:26:50Z</time>
      </trkpt>
      <trkpt lat="43.515978" lon="1.437739">
        <ele>179.9</ele>
        <time>2013-03-24T12:27:11Z</time>
      </trkpt>
      <trkpt lat="43.516107" lon="1.437766">
        <ele>179.9</ele>
        <time>2013-03-24T12:27:46Z</time>
      </trkpt>
      <trkpt lat="43.516162" lon="1.437674">
        <ele>179.9</ele>
        <time>2013-03-24T12:28:26Z</time>
      </trkpt>
      <trkpt lat="43.516198" lon="1.437443">
        <ele>178.9</ele>
        <time>2013-03-24T12:28:45Z</time>
      </trkpt>
      <trkpt lat="43.516242" lon="1.437236">
        <ele>178.9</ele>
        <time>2013-03-24T12:29:01Z</time>
      </trkpt>
      <trkpt lat="43.516287" lon="1.437080">
        <ele>179.9</ele>
        <time>2013-03-24T12:29:17Z</time>
      </trkpt>
      <trkpt lat="43.516314" lon="1.436863">
        <ele>178.9</ele>
        <time>2013-03-24T12:29:38Z</time>
      </trkpt>
      <trkpt lat="43.516476" lon="1.436824">
        <ele>182.8</ele>
        <time>2013-03-24T12:30:12Z</time>
      </trkpt>
      <trkpt lat="43.516672" lon="1.436840">
        <ele>188.6</ele>
        <time>2013-03-24T12:30:37Z</time>
      </trkpt>
      <trkpt lat="43.516785" lon="1.436921">
        <ele>192.9</ele>
        <time>2013-03-24T12:31:01Z</time>
      </trkpt>
      <trkpt lat="43.516902" lon="1.437031">
        <ele>196.7</ele>
        <time>2013-03-24T12:31:22Z</time>
      </trkpt>
      <trkpt lat="43.517042" lon="1.437110">
        <ele>199.6</ele>
        <time>2013-03-24T12:31:41Z</time>
      </trkpt>
      <trkpt lat="43.517157" lon="1.437193">
        <ele>201.1</ele>
        <time>2013-03-24T12:33:10Z</time>
      </trkpt>
      <trkpt lat="43.517235" lon="1.437331">
        <ele>202.5</ele>
        <time>2013-03-24T12:33:32Z</time>
      </trkpt>
      <trkpt lat="43.517357" lon="1.437409">
        <ele>204.9</ele>
        <time>2013-03-24T12:33:52Z</time>
      </trkpt>
      <trkpt lat="43.517476" lon="1.437546">
        <ele>206.3</ele>
        <time>2013-03-24T12:34:13Z</time>
      </trkpt>
      <trkpt lat="43.517606" lon="1.437696">
        <ele>207.8</ele>
        <time>2013-03-24T12:34:35Z</time>
      </trkpt>
      <trkpt lat="43.517717" lon="1.437846">
        <ele>209.7</ele>
        <time>2013-03-24T12:34:58Z</time>
      </trkpt>
      <trkpt lat="43.517865" lon="1.438043">
        <ele>210.7</ele>
        <time>2013-03-24T12:35:26Z</time>
      </trkpt>
      <trkpt lat="43.517964" lon="1.438183">
        <ele>210.7</ele>
        <time>2013-03-24T12:35:46Z</time>
      </trkpt>
      <trkpt lat="43.518059" lon="1.438349">
        <ele>210.7</ele>
        <time>2013-03-24T12:36:11Z</time>
      </trkpt>
      <trkpt lat="43.518060" lon="1.438539">
        <ele>207.3</ele>
        <time>2013-03-24T12:36:35Z</time>
      </trkpt>
      <trkpt lat="43.518070" lon="1.438518">
        <ele>207.8</ele>
        <time>2013-03-24T12:37:57Z</time>
      </trkpt>
      <trkpt lat="43.518168" lon="1.438381">
        <ele>210.2</ele>
        <time>2013-03-24T12:38:15Z</time>
      </trkpt>
      <trkpt lat="43.518293" lon="1.438266">
        <ele>212.6</ele>
        <time>2013-03-24T12:38:35Z</time>
      </trkpt>
      <trkpt lat="43.518409" lon="1.438187">
        <ele>215.9</ele>
        <time>2013-03-24T12:38:54Z</time>
      </trkpt>
      <trkpt lat="43.518548" lon="1.438121">
        <ele>218.4</ele>
        <time>2013-03-24T12:39:11Z</time>
      </trkpt>
      <trkpt lat="43.518682" lon="1.438059">
        <ele>222.7</ele>
        <time>2013-03-24T12:39:30Z</time>
      </trkpt>
      <trkpt lat="43.518834" lon="1.438043">
        <ele>225.1</ele>
        <time>2013-03-24T12:39:48Z</time>
      </trkpt>
      <trkpt lat="43.519081" lon="1.438004">
        <ele>230.4</ele>
        <time>2013-03-24T12:40:22Z</time>
      </trkpt>
      <trkpt lat="43.519209" lon="1.437972">
        <ele>233.7</ele>
        <time>2013-03-24T12:40:41Z</time>
      </trkpt>
      <trkpt lat="43.519317" lon="1.437916">
        <ele>237.1</ele>
        <time>2013-03-24T12:40:55Z</time>
      </trkpt>
      <trkpt lat="43.519434" lon="1.437895">
        <ele>239.0</ele>
        <time>2013-03-24T12:41:10Z</time>
      </trkpt>
      <trkpt lat="43.519573" lon="1.437883">
        <ele>240.9</ele>
        <time>2013-03-24T12:41:28Z</time>
      </trkpt>
      <trkpt lat="43.519725" lon="1.437880">
        <ele>242.9</ele>
        <time>2013-03-24T12:41:46Z</time>
      </trkpt>
      <trkpt lat="43.519851" lon="1.437865">
        <ele>244.3</ele>
        <time>2013-03-24T12:42:00Z</time>
      </trkpt>
      <trkpt lat="43.519964" lon="1.437850">
        <ele>245.8</ele>
        <time>2013-03-24T12:42:16Z</time>
      </trkpt>
      <trkpt lat="43.520074" lon="1.437827">
        <ele>246.2</ele>
        <time>2013-03-24T12:42:31Z</time>
      </trkpt>
      <trkpt lat="43.520166" lon="1.437768">
        <ele>245.8</ele>
        <time>2013-03-24T12:42:44Z</time>
        <name>Pastel</name>
      </trkpt>
      <trkpt lat="43.520230" lon="1.437615">
        <ele>246.2</ele>
        <time>2013-03-24T12:43:19Z</time>
      </trkpt>
      <trkpt lat="43.520274" lon="1.437488">
        <ele>246.7</ele>
        <time>2013-03-24T12:43:31Z</time>
      </trkpt>
      <trkpt lat="43.520300" lon="1.437359">
        <ele>247.2</ele>
        <time>2013-03-24T12:43:42Z</time>
      </trkpt>
      <trkpt lat="43.520342" lon="1.437226">
        <ele>247.2</ele>
        <time>2013-03-24T12:43:54Z</time>
      </trkpt>
      <trkpt lat="43.520387" lon="1.437085">
        <ele>247.7</ele>
        <time>2013-03-24T12:44:07Z</time>
      </trkpt>
      <trkpt lat="43.520403" lon="1.436929">
        <ele>247.2</ele>
        <time>2013-03-24T12:44:18Z</time>
      </trkpt>
      <trkpt lat="43.520427" lon="1.436766">
        <ele>247.7</ele>
        <time>2013-03-24T12:44:30Z</time>
      </trkpt>
      <trkpt lat="43.520448" lon="1.436616">
        <ele>248.6</ele>
        <time>2013-03-24T12:44:41Z</time>
      </trkpt>
      <trkpt lat="43.520454" lon="1.436475">
        <ele>249.1</ele>
        <time>2013-03-24T12:44:51Z</time>
      </trkpt>
      <trkpt lat="43.520483" lon="1.436341">
        <ele>249.6</ele>
        <time>2013-03-24T12:45:03Z</time>
      </trkpt>
      <trkpt lat="43.520459" lon="1.436178">
        <ele>249.1</ele>
        <time>2013-03-24T12:45:15Z</time>
      </trkpt>
      <trkpt lat="43.520404" lon="1.436029">
        <ele>249.1</ele>
        <time>2013-03-24T12:45:26Z</time>
      </trkpt>
      <trkpt lat="43.520372" lon="1.435896">
        <ele>248.6</ele>
        <time>2013-03-24T12:45:37Z</time>
      </trkpt>
      <trkpt lat="43.520338" lon="1.435748">
        <ele>247.7</ele>
        <time>2013-03-24T12:45:49Z</time>
      </trkpt>
      <trkpt lat="43.520290" lon="1.435603">
        <ele>247.2</ele>
        <time>2013-03-24T12:46:01Z</time>
      </trkpt>
      <trkpt lat="43.520224" lon="1.435448">
        <ele>246.7</ele>
        <time>2013-03-24T12:46:11Z</time>
      </trkpt>
      <trkpt lat="43.520184" lon="1.435290">
        <ele>246.2</ele>
        <time>2013-03-24T12:46:21Z</time>
      </trkpt>
      <trkpt lat="43.520127" lon="1.435145">
        <ele>245.8</ele>
        <time>2013-03-24T12:46:31Z</time>
      </trkpt>
      <trkpt lat="43.520084" lon="1.434984">
        <ele>245.3</ele>
        <time>2013-03-24T12:46:58Z</time>
      </trkpt>
      <trkpt lat="43.520033" lon="1.434859">
        <ele>245.3</ele>
        <time>2013-03-24T12:47:15Z</time>
      </trkpt>
      <trkpt lat="43.519997" lon="1.434733">
        <ele>244.8</ele>
        <time>2013-03-24T12:47:44Z</time>
      </trkpt>
      <trkpt lat="43.519949" lon="1.434582">
        <ele>245.3</ele>
        <time>2013-03-24T12:48:12Z</time>
      </trkpt>
      <trkpt lat="43.519932" lon="1.434451">
        <ele>244.8</ele>
        <time>2013-03-24T12:48:24Z</time>
      </trkpt>
      <trkpt lat="43.519908" lon="1.434298">
        <ele>245.3</ele>
        <time>2013-03-24T12:48:35Z</time>
      </trkpt>
      <trkpt lat="43.519879" lon="1.434162">
        <ele>244.8</ele>
        <time>2013-03-24T12:48:45Z</time>
      </trkpt>
      <trkpt lat="43.519856" lon="1.434026">
        <ele>244.8</ele>
        <time>2013-03-24T12:48:55Z</time>
      </trkpt>
      <trkpt lat="43.519827" lon="1.433901">
        <ele>245.3</ele>
        <time>2013-03-24T12:49:05Z</time>
      </trkpt>
      <trkpt lat="43.519799" lon="1.433776">
        <ele>245.3</ele>
        <time>2013-03-24T12:49:14Z</time>
      </trkpt>
      <trkpt lat="43.519780" lon="1.433641">
        <ele>245.3</ele>
        <time>2013-03-24T12:49:24Z</time>
      </trkpt>
      <trkpt lat="43.519767" lon="1.433502">
        <ele>244.8</ele>
        <time>2013-03-24T12:49:34Z</time>
      </trkpt>
      <trkpt lat="43.519753" lon="1.433346">
        <ele>244.3</ele>
        <time>2013-03-24T12:49:44Z</time>
      </trkpt>
      <trkpt lat="43.519751" lon="1.433205">
        <ele>244.8</ele>
        <time>2013-03-24T12:49:53Z</time>
      </trkpt>
      <trkpt lat="43.519753" lon="1.433061">
        <ele>244.3</ele>
        <time>2013-03-24T12:50:03Z</time>
      </trkpt>
      <trkpt lat="43.519768" lon="1.432918">
        <ele>244.8</ele>
        <time>2013-03-24T12:50:13Z</time>
      </trkpt>
      <trkpt lat="43.519769" lon="1.432782">
        <ele>244.8</ele>
        <time>2013-03-24T12:50:22Z</time>
      </trkpt>
      <trkpt lat="43.519767" lon="1.432648">
        <ele>244.3</ele>
        <time>2013-03-24T12:50:32Z</time>
        <name>Roche Fleurie</name>
      </trkpt>
      <trkpt lat="43.519817" lon="1.432495">
        <ele>244.3</ele>
        <time>2013-03-24T12:51:45Z</time>
      </trkpt>
      <trkpt lat="43.519867" lon="1.432340">
        <ele>243.8</ele>
        <time>2013-03-24T12:51:57Z</time>
      </trkpt>
      <trkpt lat="43.519904" lon="1.432199">
        <ele>244.3</ele>
        <time>2013-03-24T12:52:10Z</time>
      </trkpt>
      <trkpt lat="43.519954" lon="1.432072">
        <ele>244.3</ele>
        <time>2013-03-24T12:52:34Z</time>
      </trkpt>
      <trkpt lat="43.519981" lon="1.431935">
        <ele>244.8</ele>
        <time>2013-03-24T12:52:45Z</time>
      </trkpt>
      <trkpt lat="43.520014" lon="1.431798">
        <ele>244.3</ele>
        <time>2013-03-24T12:52:55Z</time>
      </trkpt>
      <trkpt lat="43.520049" lon="1.431673">
        <ele>244.3</ele>
        <time>2013-03-24T12:53:04Z</time>
      </trkpt>
      <trkpt lat="43.520088" lon="1.431543">
        <ele>243.8</ele>
        <time>2013-03-24T12:53:14Z</time>
      </trkpt>
      <trkpt lat="43.520121" lon="1.431413">
        <ele>243.8</ele>
        <time>2013-03-24T12:53:23Z</time>
      </trkpt>
      <trkpt lat="43.520156" lon="1.431284">
        <ele>243.4</ele>
        <time>2013-03-24T12:53:32Z</time>
      </trkpt>
      <trkpt lat="43.520187" lon="1.431152">
        <ele>243.4</ele>
        <time>2013-03-24T12:53:41Z</time>
      </trkpt>
      <trkpt lat="43.520222" lon="1.431027">
        <ele>242.9</ele>
        <time>2013-03-24T12:53:50Z</time>
      </trkpt>
      <trkpt lat="43.520243" lon="1.430897">
        <ele>242.4</ele>
        <time>2013-03-24T12:53:59Z</time>
      </trkpt>
      <trkpt lat="43.520279" lon="1.430760">
        <ele>242.4</ele>
        <time>2013-03-24T12:54:09Z</time>
      </trkpt>
      <trkpt lat="43.520306" lon="1.430631">
        <ele>242.4</ele>
        <time>2013-03-24T12:54:18Z</time>
      </trkpt>
      <trkpt lat="43.520346" lon="1.430502">
        <ele>241.4</ele>
        <time>2013-03-24T12:54:27Z</time>
      </trkpt>
      <trkpt lat="43.520402" lon="1.430369">
        <ele>240.9</ele>
        <time>2013-03-24T12:54:37Z</time>
      </trkpt>
      <trkpt lat="43.520441" lon="1.430229">
        <ele>240.9</ele>
        <time>2013-03-24T12:54:47Z</time>
      </trkpt>
      <trkpt lat="43.520484" lon="1.430077">
        <ele>240.9</ele>
        <time>2013-03-24T12:54:58Z</time>
      </trkpt>
      <trkpt lat="43.520517" lon="1.429925">
        <ele>241.4</ele>
        <time>2013-03-24T12:55:08Z</time>
      </trkpt>
      <trkpt lat="43.520546" lon="1.429753">
        <ele>241.4</ele>
        <time>2013-03-24T12:55:18Z</time>
      </trkpt>
      <trkpt lat="43.520587" lon="1.429592">
        <ele>241.4</ele>
        <time>2013-03-24T12:55:28Z</time>
      </trkpt>
      <trkpt lat="43.520617" lon="1.429418">
        <ele>241.9</ele>
        <time>2013-03-24T12:55:39Z</time>
      </trkpt>
      <trkpt lat="43.520642" lon="1.429267">
        <ele>241.9</ele>
        <time>2013-03-24T12:55:49Z</time>
      </trkpt>
      <trkpt lat="43.520647" lon="1.429123">
        <ele>241.9</ele>
        <time>2013-03-24T12:55:58Z</time>
      </trkpt>
      <trkpt lat="43.520652" lon="1.428965">
        <ele>241.9</ele>
        <time>2013-03-24T12:56:08Z</time>
      </trkpt>
      <trkpt lat="43.520671" lon="1.428809">
        <ele>242.9</ele>
        <time>2013-03-24T12:56:18Z</time>
      </trkpt>
      <trkpt lat="43.520691" lon="1.428655">
        <ele>241.9</ele>
        <time>2013-03-24T13:01:48Z</time>
        <name>Tectosages</name>
      </trkpt>
      <trkpt lat="43.520630" lon="1.428605">
        <ele>242.4</ele>
        <time>2013-03-24T13:04:04Z</time>
      </trkpt>
      <trkpt lat="43.520724" lon="1.428623">
        <ele>242.9</ele>
        <time>2013-03-24T13:04:46Z</time>
      </trkpt>
      <trkpt lat="43.520834" lon="1.428688">
        <ele>242.4</ele>
        <time>2013-03-24T13:05:06Z</time>
      </trkpt>
      <trkpt lat="43.520848" lon="1.428689">
        <ele>242.4</ele>
        <time>2013-03-24T14:27:06Z</time>
      </trkpt>
      <trkpt lat="43.520834" lon="1.428714">
        <ele>241.9</ele>
        <time>2013-03-24T14:52:29Z</time>
      </trkpt>
      <trkpt lat="43.520833" lon="1.428743">
        <ele>242.4</ele>
        <time>2013-03-24T14:55:20Z</time>
      </trkpt>
      <trkpt lat="43.520831" lon="1.428764">
        <ele>242.4</ele>
        <time>2013-03-24T14:55:33Z</time>
      </trkpt>
      <trkpt lat="43.520835" lon="1.428917">
        <ele>241.4</ele>
        <time>2013-03-24T14:55:45Z</time>
      </trkpt>
      <trkpt lat="43.520777" lon="1.429053">
        <ele>241.4</ele>
        <time>2013-03-24T14:55:57Z</time>
      </trkpt>
      <trkpt lat="43.520711" lon="1.429198">
        <ele>240.9</ele>
        <time>2013-03-24T14:56:12Z</time>
      </trkpt>
      <trkpt lat="43.520667" lon="1.429328">
        <ele>240.9</ele>
        <time>2013-03-24T14:56:29Z</time>
      </trkpt>
      <trkpt lat="43.520610" lon="1.429470">
        <ele>240.5</ele>
        <time>2013-03-24T14:56:42Z</time>
      </trkpt>
      <trkpt lat="43.520591" lon="1.429584">
        <ele>240.0</ele>
        <time>2013-03-24T14:56:52Z</time>
      </trkpt>
      <trkpt lat="43.520574" lon="1.429710">
        <ele>240.0</ele>
        <time>2013-03-24T14:57:02Z</time>
      </trkpt>
      <trkpt lat="43.520561" lon="1.429847">
        <ele>239.5</ele>
        <time>2013-03-24T14:57:12Z</time>
      </trkpt>
      <trkpt lat="43.520523" lon="1.429974">
        <ele>240.0</ele>
        <time>2013-03-24T14:57:21Z</time>
      </trkpt>
      <trkpt lat="43.520483" lon="1.430104">
        <ele>240.0</ele>
        <time>2013-03-24T14:57:31Z</time>
      </trkpt>
      <trkpt lat="43.520451" lon="1.430262">
        <ele>239.5</ele>
        <time>2013-03-24T14:57:42Z</time>
      </trkpt>
      <trkpt lat="43.520418" lon="1.430406">
        <ele>240.0</ele>
        <time>2013-03-24T14:57:52Z</time>
      </trkpt>
      <trkpt lat="43.520376" lon="1.430560">
        <ele>240.0</ele>
        <time>2013-03-24T14:58:02Z</time>
      </trkpt>
      <trkpt lat="43.520337" lon="1.430690">
        <ele>240.5</ele>
        <time>2013-03-24T14:58:11Z</time>
      </trkpt>
      <trkpt lat="43.520304" lon="1.430817">
        <ele>240.9</ele>
        <time>2013-03-24T14:58:20Z</time>
      </trkpt>
      <trkpt lat="43.520272" lon="1.430954">
        <ele>241.4</ele>
        <time>2013-03-24T14:58:29Z</time>
      </trkpt>
      <trkpt lat="43.520238" lon="1.431076">
        <ele>241.4</ele>
        <time>2013-03-24T14:58:38Z</time>
      </trkpt>
      <trkpt lat="43.520208" lon="1.431209">
        <ele>241.4</ele>
        <time>2013-03-24T14:58:47Z</time>
      </trkpt>
      <trkpt lat="43.520173" lon="1.431344">
        <ele>241.9</ele>
        <time>2013-03-24T14:58:56Z</time>
      </trkpt>
      <trkpt lat="43.520133" lon="1.431479">
        <ele>242.4</ele>
        <time>2013-03-24T14:59:05Z</time>
      </trkpt>
      <trkpt lat="43.520092" lon="1.431617">
        <ele>242.4</ele>
        <time>2013-03-24T14:59:15Z</time>
      </trkpt>
      <trkpt lat="43.520056" lon="1.431747">
        <ele>242.4</ele>
        <time>2013-03-24T14:59:24Z</time>
      </trkpt>
      <trkpt lat="43.520025" lon="1.431874">
        <ele>242.4</ele>
        <time>2013-03-24T14:59:33Z</time>
      </trkpt>
      <trkpt lat="43.519993" lon="1.432006">
        <ele>242.4</ele>
        <time>2013-03-24T14:59:42Z</time>
      </trkpt>
      <trkpt lat="43.519940" lon="1.432140">
        <ele>242.4</ele>
        <time>2013-03-24T14:59:52Z</time>
      </trkpt>
      <trkpt lat="43.519896" lon="1.432283">
        <ele>242.4</ele>
        <time>2013-03-24T15:00:02Z</time>
      </trkpt>
      <trkpt lat="43.519864" lon="1.432408">
        <ele>242.4</ele>
        <time>2013-03-24T15:00:11Z</time>
      </trkpt>
      <trkpt lat="43.519817" lon="1.432548">
        <ele>241.9</ele>
        <time>2013-03-24T15:00:20Z</time>
      </trkpt>
      <trkpt lat="43.519793" lon="1.432461">
        <ele>242.4</ele>
        <time>2013-03-24T15:00:36Z</time>
      </trkpt>
      <trkpt lat="43.519750" lon="1.432286">
        <ele>240.0</ele>
        <time>2013-03-24T15:00:50Z</time>
      </trkpt>
      <trkpt lat="43.519693" lon="1.432103">
        <ele>238.5</ele>
        <time>2013-03-24T15:01:03Z</time>
      </trkpt>
      <trkpt lat="43.519666" lon="1.431887">
        <ele>238.1</ele>
        <time>2013-03-24T15:01:28Z</time>
      </trkpt>
      <trkpt lat="43.519640" lon="1.431702">
        <ele>236.1</ele>
        <time>2013-03-24T15:01:40Z</time>
      </trkpt>
      <trkpt lat="43.519644" lon="1.431527">
        <ele>235.2</ele>
        <time>2013-03-24T15:01:52Z</time>
      </trkpt>
      <trkpt lat="43.519683" lon="1.431379">
        <ele>234.2</ele>
        <time>2013-03-24T15:02:01Z</time>
      </trkpt>
      <trkpt lat="43.519741" lon="1.431215">
        <ele>232.3</ele>
        <time>2013-03-24T15:02:13Z</time>
      </trkpt>
      <trkpt lat="43.519786" lon="1.431033">
        <ele>229.4</ele>
        <time>2013-03-24T15:02:29Z</time>
      </trkpt>
      <trkpt lat="43.519831" lon="1.430822">
        <ele>227.5</ele>
        <time>2013-03-24T15:02:43Z</time>
      </trkpt>
      <trkpt lat="43.519843" lon="1.430607">
        <ele>224.1</ele>
        <time>2013-03-24T15:02:59Z</time>
      </trkpt>
      <trkpt lat="43.519840" lon="1.430361">
        <ele>222.2</ele>
        <time>2013-03-24T15:03:13Z</time>
      </trkpt>
      <trkpt lat="43.519810" lon="1.430198">
        <ele>219.8</ele>
        <time>2013-03-24T15:03:24Z</time>
      </trkpt>
      <trkpt lat="43.519700" lon="1.430040">
        <ele>217.4</ele>
        <time>2013-03-24T15:03:40Z</time>
      </trkpt>
      <trkpt lat="43.519619" lon="1.429800">
        <ele>212.6</ele>
        <time>2013-03-24T15:04:04Z</time>
      </trkpt>
      <trkpt lat="43.519590" lon="1.429730">
        <ele>209.7</ele>
        <time>2013-03-24T15:04:41Z</time>
      </trkpt>
      <trkpt lat="43.519580" lon="1.429726">
        <ele>222.2</ele>
        <time>2013-03-24T15:05:27Z</time>
      </trkpt>
      <trkpt lat="43.519415" lon="1.429435">
        <ele>218.8</ele>
        <time>2013-03-24T15:07:47Z</time>
      </trkpt>
      <trkpt lat="43.519343" lon="1.429202">
        <ele>215.0</ele>
        <time>2013-03-24T15:08:13Z</time>
      </trkpt>
      <trkpt lat="43.519218" lon="1.429013">
        <ele>211.6</ele>
        <time>2013-03-24T15:08:29Z</time>
      </trkpt>
      <trkpt lat="43.519072" lon="1.428898">
        <ele>206.8</ele>
        <time>2013-03-24T15:08:45Z</time>
      </trkpt>
      <trkpt lat="43.518857" lon="1.428953">
        <ele>204.4</ele>
        <time>2013-03-24T15:09:04Z</time>
      </trkpt>
      <trkpt lat="43.518747" lon="1.428901">
        <ele>202.5</ele>
        <time>2013-03-24T15:09:13Z</time>
      </trkpt>
      <trkpt lat="43.518731" lon="1.428760">
        <ele>199.6</ele>
        <time>2013-03-24T15:09:22Z</time>
      </trkpt>
      <trkpt lat="43.518736" lon="1.428604">
        <ele>197.7</ele>
        <time>2013-03-24T15:09:31Z</time>
      </trkpt>
      <trkpt lat="43.518717" lon="1.428421">
        <ele>194.8</ele>
        <time>2013-03-24T15:09:43Z</time>
      </trkpt>
      <trkpt lat="43.518741" lon="1.428262">
        <ele>196.2</ele>
        <time>2013-03-24T15:09:52Z</time>
      </trkpt>
      <trkpt lat="43.518722" lon="1.428098">
        <ele>195.3</ele>
        <time>2013-03-24T15:10:01Z</time>
      </trkpt>
      <trkpt lat="43.518664" lon="1.427948">
        <ele>193.8</ele>
        <time>2013-03-24T15:10:12Z</time>
      </trkpt>
      <trkpt lat="43.518580" lon="1.427780">
        <ele>191.9</ele>
        <time>2013-03-24T15:10:24Z</time>
      </trkpt>
      <trkpt lat="43.518526" lon="1.427622">
        <ele>190.0</ele>
        <time>2013-03-24T15:10:34Z</time>
      </trkpt>
      <trkpt lat="43.518476" lon="1.427459">
        <ele>188.6</ele>
        <time>2013-03-24T15:10:44Z</time>
      </trkpt>
      <trkpt lat="43.518430" lon="1.427303">
        <ele>187.6</ele>
        <time>2013-03-24T15:10:54Z</time>
      </trkpt>
      <trkpt lat="43.518374" lon="1.427108">
        <ele>185.7</ele>
        <time>2013-03-24T15:11:06Z</time>
      </trkpt>
      <trkpt lat="43.518338" lon="1.426957">
        <ele>182.8</ele>
        <time>2013-03-24T15:11:16Z</time>
      </trkpt>
      <trkpt lat="43.518269" lon="1.426760">
        <ele>181.8</ele>
        <time>2013-03-24T15:11:27Z</time>
      </trkpt>
      <trkpt lat="43.518206" lon="1.426601">
        <ele>179.4</ele>
        <time>2013-03-24T15:11:36Z</time>
      </trkpt>
      <trkpt lat="43.518185" lon="1.426464">
        <ele>177.5</ele>
        <time>2013-03-24T15:11:44Z</time>
      </trkpt>
      <trkpt lat="43.518170" lon="1.426328">
        <ele>175.6</ele>
        <time>2013-03-24T15:11:52Z</time>
      </trkpt>
      <trkpt lat="43.518141" lon="1.426177">
        <ele>173.7</ele>
        <time>2013-03-24T15:12:02Z</time>
      </trkpt>
      <trkpt lat="43.518146" lon="1.426016">
        <ele>171.2</ele>
        <time>2013-03-24T15:12:13Z</time>
      </trkpt>
      <trkpt lat="43.518083" lon="1.425875">
        <ele>169.3</ele>
        <time>2013-03-24T15:12:21Z</time>
      </trkpt>
      <trkpt lat="43.518042" lon="1.425728">
        <ele>167.9</ele>
        <time>2013-03-24T15:12:28Z</time>
      </trkpt>
      <trkpt lat="43.517988" lon="1.425561">
        <ele>167.4</ele>
        <time>2013-03-24T15:12:38Z</time>
      </trkpt>
      <trkpt lat="43.517907" lon="1.425382">
        <ele>166.9</ele>
        <time>2013-03-24T15:12:48Z</time>
      </trkpt>
      <trkpt lat="43.517861" lon="1.425241">
        <ele>166.9</ele>
        <time>2013-03-24T15:12:56Z</time>
      </trkpt>
      <trkpt lat="43.517772" lon="1.425128">
        <ele>166.9</ele>
        <time>2013-03-24T15:13:07Z</time>
        <name>Confluent</name>
      </trkpt>
      <trkpt lat="43.517694" lon="1.425259">
        <ele>166.9</ele>
        <time>2013-03-24T15:14:05Z</time>
      </trkpt>
      <trkpt lat="43.517645" lon="1.425394">
        <ele>168.4</ele>
        <time>2013-03-24T15:14:17Z</time>
      </trkpt>
      <trkpt lat="43.517604" lon="1.425530">
        <ele>169.8</ele>
        <time>2013-03-24T15:14:27Z</time>
      </trkpt>
      <trkpt lat="43.517533" lon="1.425690">
        <ele>171.2</ele>
        <time>2013-03-24T15:14:37Z</time>
      </trkpt>
      <trkpt lat="43.517467" lon="1.425843">
        <ele>172.2</ele>
        <time>2013-03-24T15:14:47Z</time>
      </trkpt>
      <trkpt lat="43.517426" lon="1.425987">
        <ele>173.7</ele>
        <time>2013-03-24T15:14:59Z</time>
      </trkpt>
      <trkpt lat="43.517396" lon="1.426128">
        <ele>174.6</ele>
        <time>2013-03-24T15:15:09Z</time>
      </trkpt>
      <trkpt lat="43.517372" lon="1.426271">
        <ele>175.6</ele>
        <time>2013-03-24T15:15:19Z</time>
      </trkpt>
      <trkpt lat="43.517358" lon="1.426440">
        <ele>177.0</ele>
        <time>2013-03-24T15:15:29Z</time>
      </trkpt>
      <trkpt lat="43.517321" lon="1.426614">
        <ele>178.9</ele>
        <time>2013-03-24T15:15:40Z</time>
      </trkpt>
      <trkpt lat="43.517278" lon="1.426815">
        <ele>180.4</ele>
        <time>2013-03-24T15:15:51Z</time>
      </trkpt>
      <trkpt lat="43.517227" lon="1.426981">
        <ele>181.8</ele>
        <time>2013-03-24T15:16:01Z</time>
      </trkpt>
      <trkpt lat="43.517191" lon="1.427117">
        <ele>182.8</ele>
        <time>2013-03-24T15:16:11Z</time>
      </trkpt>
      <trkpt lat="43.517156" lon="1.427266">
        <ele>183.8</ele>
        <time>2013-03-24T15:16:24Z</time>
      </trkpt>
      <trkpt lat="43.517124" lon="1.427411">
        <ele>184.2</ele>
        <time>2013-03-24T15:16:35Z</time>
      </trkpt>
      <trkpt lat="43.517081" lon="1.427559">
        <ele>184.7</ele>
        <time>2013-03-24T15:16:45Z</time>
      </trkpt>
      <trkpt lat="43.517034" lon="1.427695">
        <ele>185.7</ele>
        <time>2013-03-24T15:16:55Z</time>
      </trkpt>
      <trkpt lat="43.516970" lon="1.427811">
        <ele>186.6</ele>
        <time>2013-03-24T15:17:05Z</time>
      </trkpt>
      <trkpt lat="43.516905" lon="1.427931">
        <ele>187.1</ele>
        <time>2013-03-24T15:17:15Z</time>
      </trkpt>
      <trkpt lat="43.516823" lon="1.428066">
        <ele>188.1</ele>
        <time>2013-03-24T15:17:27Z</time>
      </trkpt>
      <trkpt lat="43.516735" lon="1.428209">
        <ele>189.0</ele>
        <time>2013-03-24T15:17:37Z</time>
      </trkpt>
      <trkpt lat="43.516672" lon="1.428324">
        <ele>189.5</ele>
        <time>2013-03-24T15:17:46Z</time>
      </trkpt>
      <trkpt lat="43.516604" lon="1.428444">
        <ele>190.0</ele>
        <time>2013-03-24T15:17:56Z</time>
      </trkpt>
      <trkpt lat="43.516553" lon="1.428564">
        <ele>190.0</ele>
        <time>2013-03-24T15:18:05Z</time>
      </trkpt>
      <trkpt lat="43.516471" lon="1.428671">
        <ele>190.5</ele>
        <time>2013-03-24T15:18:15Z</time>
      </trkpt>
      <trkpt lat="43.516383" lon="1.428753">
        <ele>191.0</ele>
        <time>2013-03-24T15:18:26Z</time>
      </trkpt>
      <trkpt lat="43.516297" lon="1.428845">
        <ele>191.9</ele>
        <time>2013-03-24T15:18:37Z</time>
      </trkpt>
      <trkpt lat="43.516209" lon="1.428968">
        <ele>193.4</ele>
        <time>2013-03-24T15:18:48Z</time>
      </trkpt>
      <trkpt lat="43.516123" lon="1.429067">
        <ele>194.3</ele>
        <time>2013-03-24T15:18:58Z</time>
      </trkpt>
      <trkpt lat="43.516035" lon="1.429166">
        <ele>195.8</ele>
        <time>2013-03-24T15:19:10Z</time>
      </trkpt>
      <trkpt lat="43.515936" lon="1.429284">
        <ele>197.7</ele>
        <time>2013-03-24T15:19:21Z</time>
      </trkpt>
      <trkpt lat="43.515842" lon="1.429383">
        <ele>198.6</ele>
        <time>2013-03-24T15:19:31Z</time>
      </trkpt>
      <trkpt lat="43.515759" lon="1.429459">
        <ele>199.6</ele>
        <time>2013-03-24T15:19:41Z</time>
      </trkpt>
      <trkpt lat="43.515675" lon="1.429557">
        <ele>201.1</ele>
        <time>2013-03-24T15:19:51Z</time>
      </trkpt>
      <trkpt lat="43.515592" lon="1.429655">
        <ele>202.5</ele>
        <time>2013-03-24T15:20:01Z</time>
      </trkpt>
      <trkpt lat="43.515489" lon="1.429716">
        <ele>204.4</ele>
        <time>2013-03-24T15:20:12Z</time>
      </trkpt>
      <trkpt lat="43.515403" lon="1.429803">
        <ele>204.9</ele>
        <time>2013-03-24T15:20:22Z</time>
      </trkpt>
      <trkpt lat="43.515322" lon="1.429889">
        <ele>206.8</ele>
        <time>2013-03-24T15:20:31Z</time>
      </trkpt>
      <trkpt lat="43.515235" lon="1.429977">
        <ele>208.7</ele>
        <time>2013-03-24T15:20:42Z</time>
      </trkpt>
      <trkpt lat="43.515157" lon="1.430067">
        <ele>209.2</ele>
        <time>2013-03-24T15:20:52Z</time>
      </trkpt>
      <trkpt lat="43.515062" lon="1.430138">
        <ele>210.7</ele>
        <time>2013-03-24T15:21:02Z</time>
      </trkpt>
      <trkpt lat="43.514976" lon="1.430210">
        <ele>211.6</ele>
        <time>2013-03-24T15:21:12Z</time>
      </trkpt>
      <trkpt lat="43.514886" lon="1.430296">
        <ele>213.6</ele>
        <time>2013-03-24T15:21:23Z</time>
      </trkpt>
      <trkpt lat="43.514791" lon="1.430394">
        <ele>214.0</ele>
        <time>2013-03-24T15:21:35Z</time>
      </trkpt>
      <trkpt lat="43.514704" lon="1.430508">
        <ele>215.5</ele>
        <time>2013-03-24T15:21:48Z</time>
      </trkpt>
      <trkpt lat="43.514597" lon="1.430644">
        <ele>216.4</ele>
        <time>2013-03-24T15:22:01Z</time>
      </trkpt>
      <trkpt lat="43.514502" lon="1.430747">
        <ele>217.9</ele>
        <time>2013-03-24T15:22:11Z</time>
      </trkpt>
      <trkpt lat="43.514421" lon="1.430854">
        <ele>218.8</ele>
        <time>2013-03-24T15:22:20Z</time>
      </trkpt>
      <trkpt lat="43.514336" lon="1.430950">
        <ele>220.8</ele>
        <time>2013-03-24T15:22:30Z</time>
      </trkpt>
      <trkpt lat="43.514259" lon="1.431073">
        <ele>222.2</ele>
        <time>2013-03-24T15:22:40Z</time>
      </trkpt>
      <trkpt lat="43.514173" lon="1.431168">
        <ele>223.6</ele>
        <time>2013-03-24T15:22:50Z</time>
      </trkpt>
      <trkpt lat="43.514080" lon="1.431247">
        <ele>225.1</ele>
        <time>2013-03-24T15:23:01Z</time>
      </trkpt>
      <trkpt lat="43.513991" lon="1.431351">
        <ele>227.0</ele>
        <time>2013-03-24T15:23:14Z</time>
      </trkpt>
      <trkpt lat="43.513891" lon="1.431465">
        <ele>228.4</ele>
        <time>2013-03-24T15:23:26Z</time>
      </trkpt>
      <trkpt lat="43.513795" lon="1.431585">
        <ele>228.9</ele>
        <time>2013-03-24T15:23:38Z</time>
      </trkpt>
      <trkpt lat="43.513707" lon="1.431688">
        <ele>231.3</ele>
        <time>2013-03-24T15:23:49Z</time>
      </trkpt>
      <trkpt lat="43.513575" lon="1.431813">
        <ele>233.3</ele>
        <time>2013-03-24T15:24:02Z</time>
      </trkpt>
      <trkpt lat="43.513474" lon="1.431934">
        <ele>234.7</ele>
        <time>2013-03-24T15:24:16Z</time>
      </trkpt>
      <trkpt lat="43.513344" lon="1.431978">
        <ele>236.6</ele>
        <time>2013-03-24T15:24:30Z</time>
      </trkpt>
      <trkpt lat="43.513241" lon="1.432043">
        <ele>238.1</ele>
        <time>2013-03-24T15:24:44Z</time>
      </trkpt>
      <trkpt lat="43.513149" lon="1.432134">
        <ele>240.0</ele>
        <time>2013-03-24T15:24:55Z</time>
      </trkpt>
      <trkpt lat="43.513074" lon="1.432257">
        <ele>240.9</ele>
        <time>2013-03-24T15:25:06Z</time>
      </trkpt>
      <trkpt lat="43.513010" lon="1.432392">
        <ele>241.9</ele>
        <time>2013-03-24T15:25:16Z</time>
      </trkpt>
      <trkpt lat="43.512959" lon="1.432536">
        <ele>242.9</ele>
        <time>2013-03-24T15:25:26Z</time>
      </trkpt>
      <trkpt lat="43.512905" lon="1.432708">
        <ele>242.9</ele>
        <time>2013-03-24T15:25:37Z</time>
      </trkpt>
      <trkpt lat="43.512853" lon="1.432871">
        <ele>243.8</ele>
        <time>2013-03-24T15:25:47Z</time>
      </trkpt>
      <trkpt lat="43.512813" lon="1.433014">
        <ele>245.3</ele>
        <time>2013-03-24T15:25:57Z</time>
      </trkpt>
      <trkpt lat="43.512782" lon="1.433179">
        <ele>246.2</ele>
        <time>2013-03-24T15:26:08Z</time>
      </trkpt>
      <trkpt lat="43.512747" lon="1.433339">
        <ele>246.7</ele>
        <time>2013-03-24T15:26:16Z</time>
      </trkpt>
      <trkpt lat="43.512723" lon="1.433492">
        <ele>246.7</ele>
        <time>2013-03-24T15:26:25Z</time>
      </trkpt>
      <trkpt lat="43.512680" lon="1.433617">
        <ele>247.2</ele>
        <time>2013-03-24T15:26:34Z</time>
      </trkpt>
      <trkpt lat="43.512641" lon="1.433757">
        <ele>248.6</ele>
        <time>2013-03-24T15:26:45Z</time>
      </trkpt>
      <trkpt lat="43.512556" lon="1.433885">
        <ele>248.6</ele>
        <time>2013-03-24T15:26:55Z</time>
        <name>Auzil</name>
      </trkpt>
      <trkpt lat="43.512496" lon="1.434064">
        <ele>249.6</ele>
        <time>2013-03-24T15:27:37Z</time>
      </trkpt>
      <trkpt lat="43.512473" lon="1.434191">
        <ele>249.1</ele>
        <time>2013-03-24T15:27:48Z</time>
      </trkpt>
      <trkpt lat="43.512435" lon="1.434316">
        <ele>250.1</ele>
        <time>2013-03-24T15:28:00Z</time>
      </trkpt>
      <trkpt lat="43.512400" lon="1.434463">
        <ele>250.6</ele>
        <time>2013-03-24T15:28:11Z</time>
      </trkpt>
      <trkpt lat="43.512347" lon="1.434605">
        <ele>251.5</ele>
        <time>2013-03-24T15:28:29Z</time>
      </trkpt>
      <trkpt lat="43.512307" lon="1.434735">
        <ele>252.0</ele>
        <time>2013-03-24T15:28:40Z</time>
      </trkpt>
      <trkpt lat="43.512273" lon="1.434857">
        <ele>252.5</ele>
        <time>2013-03-24T15:28:51Z</time>
      </trkpt>
      <trkpt lat="43.512226" lon="1.434978">
        <ele>253.0</ele>
        <time>2013-03-24T15:29:01Z</time>
      </trkpt>
      <trkpt lat="43.512174" lon="1.435109">
        <ele>253.9</ele>
        <time>2013-03-24T15:29:13Z</time>
      </trkpt>
      <trkpt lat="43.512123" lon="1.435245">
        <ele>254.9</ele>
        <time>2013-03-24T15:29:27Z</time>
      </trkpt>
      <trkpt lat="43.512075" lon="1.435375">
        <ele>255.4</ele>
        <time>2013-03-24T15:29:48Z</time>
      </trkpt>
      <trkpt lat="43.512022" lon="1.435464">
        <ele>254.9</ele>
        <time>2013-03-24T15:30:27Z</time>
      </trkpt>
      <trkpt lat="43.511912" lon="1.435614">
        <ele>254.9</ele>
        <time>2013-03-24T15:32:44Z</time>
      </trkpt>
      <trkpt lat="43.511862" lon="1.435737">
        <ele>255.4</ele>
        <time>2013-03-24T15:32:58Z</time>
      </trkpt>
      <trkpt lat="43.511838" lon="1.435862">
        <ele>255.4</ele>
        <time>2013-03-24T15:33:14Z</time>
      </trkpt>
      <trkpt lat="43.511825" lon="1.435974">
        <ele>255.4</ele>
        <time>2013-03-24T15:33:32Z</time>
      </trkpt>
      <trkpt lat="43.511762" lon="1.436027">
        <ele>255.4</ele>
        <time>2013-03-24T15:34:09Z</time>
      </trkpt>
      <trkpt lat="43.511705" lon="1.436143">
        <ele>255.4</ele>
        <time>2013-03-24T15:34:24Z</time>
      </trkpt>
      <trkpt lat="43.511644" lon="1.436275">
        <ele>255.9</ele>
        <time>2013-03-24T15:34:39Z</time>
      </trkpt>
      <trkpt lat="43.511585" lon="1.436407">
        <ele>255.9</ele>
        <time>2013-03-24T15:34:54Z</time>
      </trkpt>
      <trkpt lat="43.511543" lon="1.436548">
        <ele>256.3</ele>
        <time>2013-03-24T15:35:09Z</time>
      </trkpt>
      <trkpt lat="43.511496" lon="1.436666">
        <ele>256.3</ele>
        <time>2013-03-24T15:35:23Z</time>
      </trkpt>
      <trkpt lat="43.511454" lon="1.436802">
        <ele>256.3</ele>
        <time>2013-03-24T15:35:37Z</time>
      </trkpt>
      <trkpt lat="43.511417" lon="1.436927">
        <ele>256.8</ele>
        <time>2013-03-24T15:35:50Z</time>
      </trkpt>
      <trkpt lat="43.511361" lon="1.437053">
        <ele>256.3</ele>
        <time>2013-03-24T15:36:04Z</time>
      </trkpt>
      <trkpt lat="43.511328" lon="1.437182">
        <ele>256.8</ele>
        <time>2013-03-24T15:36:17Z</time>
      </trkpt>
      <trkpt lat="43.511274" lon="1.437308">
        <ele>256.8</ele>
        <time>2013-03-24T15:36:35Z</time>
      </trkpt>
      <trkpt lat="43.511244" lon="1.437437">
        <ele>256.8</ele>
        <time>2013-03-24T15:37:16Z</time>
      </trkpt>
      <trkpt lat="43.511227" lon="1.437577">
        <ele>256.8</ele>
        <time>2013-03-24T15:37:28Z</time>
      </trkpt>
      <trkpt lat="43.511219" lon="1.437715">
        <ele>257.3</ele>
        <time>2013-03-24T15:37:41Z</time>
      </trkpt>
      <trkpt lat="43.511309" lon="1.437730">
        <ele>257.3</ele>
        <time>2013-03-24T15:38:00Z</time>
      </trkpt>
      <trkpt lat="43.511426" lon="1.437774">
        <ele>257.3</ele>
        <time>2013-03-24T15:38:19Z</time>
      </trkpt>
      <trkpt lat="43.511544" lon="1.437811">
        <ele>257.3</ele>
        <time>2013-03-24T15:38:33Z</time>
      </trkpt>
      <trkpt lat="43.511657" lon="1.437850">
        <ele>256.3</ele>
        <time>2013-03-24T15:38:47Z</time>
      </trkpt>
      <trkpt lat="43.511750" lon="1.437910">
        <ele>253.9</ele>
        <time>2013-03-24T15:38:59Z</time>
      </trkpt>
      <trkpt lat="43.511851" lon="1.437976">
        <ele>252.5</ele>
        <time>2013-03-24T15:39:13Z</time>
      </trkpt>
      <trkpt lat="43.511951" lon="1.438057">
        <ele>250.1</ele>
        <time>2013-03-24T15:39:26Z</time>
      </trkpt>
      <trkpt lat="43.512043" lon="1.438137">
        <ele>247.7</ele>
        <time>2013-03-24T15:39:38Z</time>
      </trkpt>
      <trkpt lat="43.512137" lon="1.438206">
        <ele>246.7</ele>
        <time>2013-03-24T15:39:51Z</time>
      </trkpt>
      <trkpt lat="43.512222" lon="1.438311">
        <ele>244.8</ele>
        <time>2013-03-24T15:40:04Z</time>
      </trkpt>
      <trkpt lat="43.512300" lon="1.438391">
        <ele>242.9</ele>
        <time>2013-03-24T15:40:17Z</time>
      </trkpt>
      <trkpt lat="43.512362" lon="1.438470">
        <ele>240.9</ele>
        <time>2013-03-24T15:40:28Z</time>
      </trkpt>
      <trkpt lat="43.512442" lon="1.438561">
        <ele>239.0</ele>
        <time>2013-03-24T15:40:40Z</time>
      </trkpt>
      <trkpt lat="43.512502" lon="1.438663">
        <ele>238.1</ele>
        <time>2013-03-24T15:40:53Z</time>
      </trkpt>
      <trkpt lat="43.512577" lon="1.438758">
        <ele>235.7</ele>
        <time>2013-03-24T15:41:05Z</time>
      </trkpt>
      <trkpt lat="43.512655" lon="1.438850">
        <ele>234.7</ele>
        <time>2013-03-24T15:41:17Z</time>
      </trkpt>
      <trkpt lat="43.512737" lon="1.438942">
        <ele>233.7</ele>
        <time>2013-03-24T15:41:29Z</time>
      </trkpt>
      <trkpt lat="43.512809" lon="1.439031">
        <ele>232.3</ele>
        <time>2013-03-24T15:41:42Z</time>
      </trkpt>
      <trkpt lat="43.512893" lon="1.439102">
        <ele>230.4</ele>
        <time>2013-03-24T15:43:28Z</time>
      </trkpt>
      <trkpt lat="43.512971" lon="1.439173">
        <ele>229.9</ele>
        <time>2013-03-24T15:43:40Z</time>
      </trkpt>
      <trkpt lat="43.513058" lon="1.439230">
        <ele>228.4</ele>
        <time>2013-03-24T15:43:59Z</time>
      </trkpt>
      <trkpt lat="43.513143" lon="1.439282">
        <ele>227.0</ele>
        <time>2013-03-24T15:44:10Z</time>
      </trkpt>
      <trkpt lat="43.513227" lon="1.439332">
        <ele>225.6</ele>
        <time>2013-03-24T15:44:22Z</time>
      </trkpt>
      <trkpt lat="43.513316" lon="1.439376">
        <ele>224.1</ele>
        <time>2013-03-24T15:44:34Z</time>
      </trkpt>
      <trkpt lat="43.513403" lon="1.439421">
        <ele>222.7</ele>
        <time>2013-03-24T15:44:57Z</time>
      </trkpt>
      <trkpt lat="43.513492" lon="1.439464">
        <ele>221.7</ele>
        <time>2013-03-24T15:45:08Z</time>
      </trkpt>
      <trkpt lat="43.513588" lon="1.439507">
        <ele>220.8</ele>
        <time>2013-03-24T15:45:19Z</time>
      </trkpt>
      <trkpt lat="43.513675" lon="1.439558">
        <ele>219.3</ele>
        <time>2013-03-24T15:45:30Z</time>
      </trkpt>
      <trkpt lat="43.513775" lon="1.439600">
        <ele>217.9</ele>
        <time>2013-03-24T15:45:43Z</time>
      </trkpt>
      <trkpt lat="43.513862" lon="1.439640">
        <ele>217.4</ele>
        <time>2013-03-24T15:45:54Z</time>
      </trkpt>
      <trkpt lat="43.513962" lon="1.439682">
        <ele>215.5</ele>
        <time>2013-03-24T15:46:05Z</time>
      </trkpt>
      <trkpt lat="43.514066" lon="1.439729">
        <ele>214.5</ele>
        <time>2013-03-24T15:46:16Z</time>
      </trkpt>
      <trkpt lat="43.514171" lon="1.439783">
        <ele>212.6</ele>
        <time>2013-03-24T15:46:28Z</time>
      </trkpt>
      <trkpt lat="43.514275" lon="1.439827">
        <ele>211.6</ele>
        <time>2013-03-24T15:46:39Z</time>
      </trkpt>
      <trkpt lat="43.514390" lon="1.439862">
        <ele>209.2</ele>
        <time>2013-03-24T15:46:52Z</time>
      </trkpt>
      <trkpt lat="43.514519" lon="1.439908">
        <ele>207.8</ele>
        <time>2013-03-24T15:47:05Z</time>
      </trkpt>
      <trkpt lat="43.514615" lon="1.440020">
        <ele>204.9</ele>
        <time>2013-03-24T15:48:22Z</time>
      </trkpt>
      <trkpt lat="43.514586" lon="1.440216">
        <ele>203.9</ele>
        <time>2013-03-24T15:48:42Z</time>
      </trkpt>
      <trkpt lat="43.514631" lon="1.440440">
        <ele>199.1</ele>
        <time>2013-03-24T15:49:12Z</time>
      </trkpt>
      <trkpt lat="43.514693" lon="1.440581">
        <ele>194.8</ele>
        <time>2013-03-24T15:49:32Z</time>
      </trkpt>
      <trkpt lat="43.514790" lon="1.440746">
        <ele>192.4</ele>
        <time>2013-03-24T15:50:06Z</time>
      </trkpt>
      <trkpt lat="43.514814" lon="1.440938">
        <ele>190.5</ele>
        <time>2013-03-24T15:50:31Z</time>
      </trkpt>
      <trkpt lat="43.514803" lon="1.441155">
        <ele>187.6</ele>
        <time>2013-03-24T15:50:49Z</time>
      </trkpt>
      <trkpt lat="43.514774" lon="1.441346">
        <ele>186.1</ele>
        <time>2013-03-24T15:51:05Z</time>
      </trkpt>
      <trkpt lat="43.514701" lon="1.441498">
        <ele>186.1</ele>
        <time>2013-03-24T15:51:23Z</time>
      </trkpt>
      <trkpt lat="43.514640" lon="1.441757">
        <ele>186.1</ele>
        <time>2013-03-24T15:51:42Z</time>
      </trkpt>
      <trkpt lat="43.514564" lon="1.441924">
        <ele>186.6</ele>
        <time>2013-03-24T15:51:56Z</time>
      </trkpt>
      <trkpt lat="43.514478" lon="1.442181">
        <ele>187.6</ele>
        <time>2013-03-24T15:52:16Z</time>
      </trkpt>
      <trkpt lat="43.514395" lon="1.442338">
        <ele>187.6</ele>
        <time>2013-03-24T15:52:31Z</time>
      </trkpt>
      <trkpt lat="43.514396" lon="1.442493">
        <ele>187.1</ele>
        <time>2013-03-24T15:52:59Z</time>
      </trkpt>
      <trkpt lat="43.514330" lon="1.442642">
        <ele>188.1</ele>
        <time>2013-03-24T15:53:17Z</time>
      </trkpt>
      <trkpt lat="43.514260" lon="1.442750">
        <ele>188.1</ele>
        <time>2013-03-24T15:53:36Z</time>
      </trkpt>
      <trkpt lat="43.514221" lon="1.443041">
        <ele>188.1</ele>
        <time>2013-03-24T15:53:57Z</time>
      </trkpt>
      <trkpt lat="43.514196" lon="1.443254">
        <ele>188.6</ele>
        <time>2013-03-24T15:54:15Z</time>
      </trkpt>
      <trkpt lat="43.514123" lon="1.443397">
        <ele>188.6</ele>
        <time>2013-03-24T15:54:33Z</time>
      </trkpt>
      <trkpt lat="43.513987" lon="1.443577">
        <ele>189.5</ele>
        <time>2013-03-24T15:54:48Z</time>
      </trkpt>
      <trkpt lat="43.513884" lon="1.443722">
        <ele>189.0</ele>
        <time>2013-03-24T15:55:05Z</time>
      </trkpt>
      <trkpt lat="43.513783" lon="1.443781">
        <ele>190.0</ele>
        <time>2013-03-24T15:55:16Z</time>
      </trkpt>
      <trkpt lat="43.513726" lon="1.443882">
        <ele>190.5</ele>
        <time>2013-03-24T15:55:48Z</time>
      </trkpt>
      <trkpt lat="43.513648" lon="1.444029">
        <ele>195.3</ele>
        <time>2013-03-24T15:56:15Z</time>
      </trkpt>
      <trkpt lat="43.513598" lon="1.444175">
        <ele>199.6</ele>
        <time>2013-03-24T15:56:51Z</time>
      </trkpt>
      <trkpt lat="43.513622" lon="1.444314">
        <ele>201.5</ele>
        <time>2013-03-24T15:57:09Z</time>
      </trkpt>
      <trkpt lat="43.513586" lon="1.444482">
        <ele>203.0</ele>
        <time>2013-03-24T15:57:25Z</time>
      </trkpt>
      <trkpt lat="43.513484" lon="1.444570">
        <ele>205.4</ele>
        <time>2013-03-24T15:57:38Z</time>
      </trkpt>
      <trkpt lat="43.513376" lon="1.444657">
        <ele>206.8</ele>
        <time>2013-03-24T15:57:53Z</time>
      </trkpt>
      <trkpt lat="43.513228" lon="1.444750">
        <ele>207.3</ele>
        <time>2013-03-24T15:59:40Z</time>
      </trkpt>
      <trkpt lat="43.513266" lon="1.444870">
        <ele>208.7</ele>
        <time>2013-03-24T15:59:54Z</time>
      </trkpt>
      <trkpt lat="43.513294" lon="1.445024">
        <ele>209.7</ele>
        <time>2013-03-24T16:00:07Z</time>
      </trkpt>
      <trkpt lat="43.513243" lon="1.445203">
        <ele>211.1</ele>
        <time>2013-03-24T16:00:21Z</time>
      </trkpt>
      <trkpt lat="43.513210" lon="1.445378">
        <ele>212.1</ele>
        <time>2013-03-24T16:00:35Z</time>
      </trkpt>
      <trkpt lat="43.513184" lon="1.445542">
        <ele>212.6</ele>
        <time>2013-03-24T16:00:47Z</time>
      </trkpt>
      <trkpt lat="43.513144" lon="1.445730">
        <ele>213.1</ele>
        <time>2013-03-24T16:01:02Z</time>
      </trkpt>
      <trkpt lat="43.513110" lon="1.445936">
        <ele>214.5</ele>
        <time>2013-03-24T16:01:19Z</time>
      </trkpt>
      <trkpt lat="43.513069" lon="1.446119">
        <ele>214.0</ele>
        <time>2013-03-24T16:01:32Z</time>
      </trkpt>
      <trkpt lat="43.513025" lon="1.446297">
        <ele>214.5</ele>
        <time>2013-03-24T16:01:45Z</time>
      </trkpt>
      <trkpt lat="43.512997" lon="1.446486">
        <ele>214.5</ele>
        <time>2013-03-24T16:02:01Z</time>
      </trkpt>
      <trkpt lat="43.512966" lon="1.446682">
        <ele>215.5</ele>
        <time>2013-03-24T16:02:14Z</time>
      </trkpt>
      <trkpt lat="43.512937" lon="1.446870">
        <ele>215.0</ele>
        <time>2013-03-24T16:02:28Z</time>
      </trkpt>
      <trkpt lat="43.512876" lon="1.447064">
        <ele>214.0</ele>
        <time>2013-03-24T16:02:43Z</time>
      </trkpt>
      <trkpt lat="43.512816" lon="1.447240">
        <ele>212.6</ele>
        <time>2013-03-24T16:02:57Z</time>
      </trkpt>
      <trkpt lat="43.512744" lon="1.447399">
        <ele>213.1</ele>
        <time>2013-03-24T16:03:13Z</time>
      </trkpt>
      <trkpt lat="43.512695" lon="1.447607">
        <ele>215.0</ele>
        <time>2013-03-24T16:03:32Z</time>
      </trkpt>
      <trkpt lat="43.512616" lon="1.447851">
        <ele>216.9</ele>
        <time>2013-03-24T16:03:54Z</time>
      </trkpt>
      <trkpt lat="43.512521" lon="1.448071">
        <ele>218.8</ele>
        <time>2013-03-24T16:04:12Z</time>
      </trkpt>
      <trkpt lat="43.512495" lon="1.448219">
        <ele>219.3</ele>
        <time>2013-03-24T16:04:35Z</time>
      </trkpt>
      <trkpt lat="43.512507" lon="1.448337">
        <ele>218.4</ele>
        <time>2013-03-24T16:07:07Z</time>
      </trkpt>
      <trkpt lat="43.512553" lon="1.448499">
        <ele>216.9</ele>
        <time>2013-03-24T16:07:24Z</time>
      </trkpt>
      <trkpt lat="43.512603" lon="1.448668">
        <ele>215.0</ele>
        <time>2013-03-24T16:07:39Z</time>
      </trkpt>
      <trkpt lat="43.512595" lon="1.448827">
        <ele>215.0</ele>
        <time>2013-03-24T16:07:51Z</time>
      </trkpt>
      <trkpt lat="43.512588" lon="1.449009">
        <ele>215.0</ele>
        <time>2013-03-24T16:08:02Z</time>
      </trkpt>
      <trkpt lat="43.512544" lon="1.449208">
        <ele>215.9</ele>
        <time>2013-03-24T16:08:16Z</time>
      </trkpt>
      <trkpt lat="43.512470" lon="1.449362">
        <ele>217.9</ele>
        <time>2013-03-24T16:08:33Z</time>
      </trkpt>
      <trkpt lat="43.512430" lon="1.449567">
        <ele>217.9</ele>
        <time>2013-03-24T16:08:54Z</time>
      </trkpt>
      <trkpt lat="43.512367" lon="1.449752">
        <ele>217.9</ele>
        <time>2013-03-24T16:09:10Z</time>
      </trkpt>
      <trkpt lat="43.512307" lon="1.449899">
        <ele>218.4</ele>
        <time>2013-03-24T16:09:28Z</time>
      </trkpt>
      <trkpt lat="43.512232" lon="1.450170">
        <ele>215.5</ele>
        <time>2013-03-24T16:10:10Z</time>
      </trkpt>
      <trkpt lat="43.512139" lon="1.450264">
        <ele>215.0</ele>
        <time>2013-03-24T16:10:43Z</time>
      </trkpt>
      <trkpt lat="43.512111" lon="1.450391">
        <ele>213.1</ele>
        <time>2013-03-24T16:11:04Z</time>
      </trkpt>
      <trkpt lat="43.512244" lon="1.450454">
        <ele>214.0</ele>
        <time>2013-03-24T16:11:24Z</time>
      </trkpt>
      <trkpt lat="43.512171" lon="1.450626">
        <ele>217.4</ele>
        <time>2013-03-24T16:11:47Z</time>
      </trkpt>
      <trkpt lat="43.512039" lon="1.450741">
        <ele>219.8</ele>
        <time>2013-03-24T16:12:06Z</time>
      </trkpt>
      <trkpt lat="43.511964" lon="1.450883">
        <ele>222.2</ele>
        <time>2013-03-24T16:12:21Z</time>
      </trkpt>
      <trkpt lat="43.511845" lon="1.451056">
        <ele>224.1</ele>
        <time>2013-03-24T16:12:36Z</time>
      </trkpt>
      <trkpt lat="43.511775" lon="1.451179">
        <ele>226.1</ele>
        <time>2013-03-24T16:12:52Z</time>
      </trkpt>
      <trkpt lat="43.511636" lon="1.451329">
        <ele>226.5</ele>
        <time>2013-03-24T16:13:09Z</time>
      </trkpt>
      <trkpt lat="43.511527" lon="1.451421">
        <ele>228.4</ele>
        <time>2013-03-24T16:13:22Z</time>
      </trkpt>
      <trkpt lat="43.511432" lon="1.451516">
        <ele>229.9</ele>
        <time>2013-03-24T16:13:35Z</time>
      </trkpt>
      <trkpt lat="43.511389" lon="1.451656">
        <ele>230.4</ele>
        <time>2013-03-24T16:13:47Z</time>
      </trkpt>
      <trkpt lat="43.511349" lon="1.451805">
        <ele>231.3</ele>
        <time>2013-03-24T16:14:00Z</time>
      </trkpt>
      <trkpt lat="43.511298" lon="1.451963">
        <ele>232.3</ele>
        <time>2013-03-24T16:14:12Z</time>
      </trkpt>
      <trkpt lat="43.511258" lon="1.452100">
        <ele>232.8</ele>
        <time>2013-03-24T16:14:23Z</time>
      </trkpt>
      <trkpt lat="43.511179" lon="1.452256">
        <ele>233.3</ele>
        <time>2013-03-24T16:14:37Z</time>
      </trkpt>
      <trkpt lat="43.511123" lon="1.452420">
        <ele>233.7</ele>
        <time>2013-03-24T16:14:50Z</time>
      </trkpt>
      <trkpt lat="43.511102" lon="1.452562">
        <ele>233.7</ele>
        <time>2013-03-24T16:14:59Z</time>
      </trkpt>
      <trkpt lat="43.511072" lon="1.452704">
        <ele>233.7</ele>
        <time>2013-03-24T16:15:09Z</time>
      </trkpt>
      <trkpt lat="43.511046" lon="1.452841">
        <ele>234.2</ele>
        <time>2013-03-24T16:15:18Z</time>
      </trkpt>
      <trkpt lat="43.511007" lon="1.452984">
        <ele>234.2</ele>
        <time>2013-03-24T16:15:28Z</time>
      </trkpt>
      <trkpt lat="43.510942" lon="1.453122">
        <ele>235.2</ele>
        <time>2013-03-24T16:15:40Z</time>
      </trkpt>
      <trkpt lat="43.510854" lon="1.453245">
        <ele>236.1</ele>
        <time>2013-03-24T16:15:52Z</time>
      </trkpt>
      <trkpt lat="43.510765" lon="1.453363">
        <ele>237.6</ele>
        <time>2013-03-24T16:16:06Z</time>
      </trkpt>
      <trkpt lat="43.510671" lon="1.453471">
        <ele>237.6</ele>
        <time>2013-03-24T16:16:19Z</time>
      </trkpt>
      <trkpt lat="43.510593" lon="1.453593">
        <ele>238.1</ele>
        <time>2013-03-24T16:16:30Z</time>
      </trkpt>
      <trkpt lat="43.510516" lon="1.453723">
        <ele>238.5</ele>
        <time>2013-03-24T16:16:41Z</time>
      </trkpt>
      <trkpt lat="43.510452" lon="1.453845">
        <ele>239.0</ele>
        <time>2013-03-24T16:16:51Z</time>
      </trkpt>
      <trkpt lat="43.510388" lon="1.453962">
        <ele>239.5</ele>
        <time>2013-03-24T16:17:01Z</time>
      </trkpt>
      <trkpt lat="43.510322" lon="1.454115">
        <ele>240.5</ele>
        <time>2013-03-24T16:17:15Z</time>
      </trkpt>
      <trkpt lat="43.510246" lon="1.454257">
        <ele>240.5</ele>
        <time>2013-03-24T16:17:29Z</time>
      </trkpt>
      <trkpt lat="43.510168" lon="1.454391">
        <ele>240.5</ele>
        <time>2013-03-24T16:17:41Z</time>
      </trkpt>
      <trkpt lat="43.510086" lon="1.454542">
        <ele>241.9</ele>
        <time>2013-03-24T16:17:59Z</time>
      </trkpt>
      <trkpt lat="43.509970" lon="1.454693">
        <ele>243.4</ele>
        <time>2013-03-24T16:18:19Z</time>
      </trkpt>
      <trkpt lat="43.509829" lon="1.454845">
        <ele>245.8</ele>
        <time>2013-03-24T16:18:39Z</time>
      </trkpt>
      <trkpt lat="43.509661" lon="1.454991">
        <ele>248.6</ele>
        <time>2013-03-24T16:18:59Z</time>
      </trkpt>
      <trkpt lat="43.509482" lon="1.455105">
        <ele>250.6</ele>
        <time>2013-03-24T16:19:23Z</time>
      </trkpt>
      <trkpt lat="43.509379" lon="1.455197">
        <ele>252.0</ele>
        <time>2013-03-24T16:19:39Z</time>
      </trkpt>
      <trkpt lat="43.509251" lon="1.455299">
        <ele>252.5</ele>
        <time>2013-03-24T16:19:57Z</time>
      </trkpt>
      <trkpt lat="43.509167" lon="1.455448">
        <ele>253.0</ele>
        <time>2013-03-24T16:20:12Z</time>
      </trkpt>
      <trkpt lat="43.509137" lon="1.455625">
        <ele>252.5</ele>
        <time>2013-03-24T16:20:24Z</time>
      </trkpt>
      <trkpt lat="43.509148" lon="1.455805">
        <ele>252.0</ele>
        <time>2013-03-24T16:20:37Z</time>
      </trkpt>
      <trkpt lat="43.509165" lon="1.455983">
        <ele>250.6</ele>
        <time>2013-03-24T16:20:51Z</time>
      </trkpt>
      <trkpt lat="43.509178" lon="1.456153">
        <ele>250.6</ele>
        <time>2013-03-24T16:21:02Z</time>
      </trkpt>
      <trkpt lat="43.509178" lon="1.456320">
        <ele>250.6</ele>
        <time>2013-03-24T16:21:14Z</time>
      </trkpt>
      <trkpt lat="43.509122" lon="1.456468">
        <ele>251.0</ele>
        <time>2013-03-24T16:21:25Z</time>
      </trkpt>
      <trkpt lat="43.509078" lon="1.456625">
        <ele>251.0</ele>
        <time>2013-03-24T16:21:37Z</time>
      </trkpt>
      <trkpt lat="43.509006" lon="1.456827">
        <ele>251.5</ele>
        <time>2013-03-24T16:21:50Z</time>
      </trkpt>
      <trkpt lat="43.508971" lon="1.456992">
        <ele>252.5</ele>
        <time>2013-03-24T16:22:06Z</time>
      </trkpt>
      <trkpt lat="43.508894" lon="1.457167">
        <ele>253.4</ele>
        <time>2013-03-24T16:22:22Z</time>
      </trkpt>
      <trkpt lat="43.508837" lon="1.457369">
        <ele>254.4</ele>
        <time>2013-03-24T16:22:37Z</time>
      </trkpt>
      <trkpt lat="43.508760" lon="1.457533">
        <ele>254.9</ele>
        <time>2013-03-24T16:22:49Z</time>
      </trkpt>
      <trkpt lat="43.508689" lon="1.457702">
        <ele>254.9</ele>
        <time>2013-03-24T16:23:03Z</time>
      </trkpt>
      <trkpt lat="43.508633" lon="1.457864">
        <ele>255.9</ele>
        <time>2013-03-24T16:23:15Z</time>
      </trkpt>
      <trkpt lat="43.508577" lon="1.458022">
        <ele>256.3</ele>
        <time>2013-03-24T16:23:27Z</time>
      </trkpt>
      <trkpt lat="43.508523" lon="1.458176">
        <ele>256.8</ele>
        <time>2013-03-24T16:23:38Z</time>
      </trkpt>
      <trkpt lat="43.508461" lon="1.458322">
        <ele>256.8</ele>
        <time>2013-03-24T16:23:49Z</time>
      </trkpt>
      <trkpt lat="43.508364" lon="1.458372">
        <ele>256.8</ele>
        <time>2013-03-24T16:24:00Z</time>
      </trkpt>
      <trkpt lat="43.508266" lon="1.458307">
        <ele>258.7</ele>
        <time>2013-03-24T16:24:12Z</time>
      </trkpt>
      <trkpt lat="43.508175" lon="1.458251">
        <ele>259.2</ele>
        <time>2013-03-24T16:24:23Z</time>
      </trkpt>
      <trkpt lat="43.508073" lon="1.458198">
        <ele>259.7</ele>
        <time>2013-03-24T16:24:34Z</time>
      </trkpt>
      <trkpt lat="43.507991" lon="1.458148">
        <ele>260.2</ele>
        <time>2013-03-24T16:24:45Z</time>
      </trkpt>
      <trkpt lat="43.507904" lon="1.458072">
        <ele>259.7</ele>
        <time>2013-03-24T16:24:57Z</time>
      </trkpt>
      <trkpt lat="43.507892" lon="1.457982">
        <ele>259.2</ele>
        <time>2013-03-24T16:25:48Z</time>
      </trkpt>
    </trkseg>
  </trk>
</gpx>

